Ashford, CT

11:37 AM EST on November 24, 2014 (GMT -0500)
Gurleyville Green | Change Station
CLOSE
Current Station
Personal Weather Station
Location: Storrs Mansfield, CT
Elevation: 354 ft
Nearby Weather Stations
Active Advisory: Winter Storm Watch Active Notice: Public Information Statement

Elev 354 ft 41.82 °N, 72.22 °W | Updated 7 seconds ago

Light Rain
Light Rain Mist
62.5 °F
Feels Like 62.5 °F
N
3.0
Wind Variable Wind from SW
Gusts 6.0 mph

Today
High -- | Low -- °F
--% Chance of Precip.
Yesterday
High -- | Low -- °F
Precip. -- in
6:48 AM 4:21 PM
Waxing Crescent, 6% visible
Pressure 29.69 in
Visibility 3.0 miles
Clouds Mostly Cloudy 900 ft
Overcast 1300 ft
Dew Point 62 °F
Humidity 97%
Rainfall 0.64 in
Snow Depth Not available.
UV 1 out of 12
Pollen .10 out of 12
Air Quality Not available.
Flu Activity Not available.
SPECI KIJD 241614Z AUTO 20009G20KT 3SM -RA BR BKN009 OVC013 18/16 A2969 RMK AO2 CIG 006V011 P0001 T01780161

More Conditions Fewer Conditions

Pressure 29.69 in
Visibility 3.0 miles
Clouds Mostly Cloudy 900 ft
Overcast 1300 ft
Dew Point 62 °F
Humidity 97%
Rainfall 0.64 in
Snow Depth Not available.
UV 1 out of 12
Pollen .10 out of 12
Air Quality Not available.
Flu Activity Not available.
SPECI KIJD 241614Z AUTO 20009G20KT 3SM -RA BR BKN009 OVC013 18/16 A2969 RMK AO2 CIG 006V011 P0001 T01780161

More Conditions Fewer Conditions

10-Day Weather Forecast

Almanac

Astronomy

Nov. 24, 2014 Rise Set
Actual Time
Civil Twilight
Nautical Twilight
Astronomical Twilight
Moon
Length of Visible Light
Length of Day
Tomorrow will be .
, % of the Moon is Illuminated

Today's Extremes

State Highs State Lows

Community

WunderPhotos

Upload Photos

1,773,366 photos uploaded!

WunderBlogs® & News

Nearby

Air Quality

  Air Quality AQ Index Pollutant
Not available.

Snow Depth

Station Depth Elevation

Earthquake Activity

City Distance Mag. Time & Date
Minimum magnitude displayed is 2.5.

Coastal Water Temperatures

Place Temperature

Nearby Weather Stations